createdAt,value
2023-04-04T00:01:25.370Z,101380.04
2023-04-04T00:03:55.304Z,101373.86
2023-04-04T00:06:24.416Z,101366.75
2023-04-04T00:08:55.933Z,101364.92
2023-04-04T00:11:26.402Z,101370.70
2023-04-04T00:13:57.122Z,101371.44
2023-04-04T00:16:26.877Z,101360.16
2023-04-04T00:18:55.909Z,101362.50
2023-04-04T00:21:27.378Z,101365.70
2023-04-04T00:23:56.495Z,101351.81
2023-04-04T00:26:26.588Z,101354.21
2023-04-04T00:28:55.675Z,101360.88
2023-04-04T00:31:27.184Z,101362.41
2023-04-04T00:33:56.581Z,101361.28
2023-04-04T00:36:26.664Z,101363.63
2023-04-04T00:38:56.258Z,101363.45
2023-04-04T00:41:29.162Z,101358.20
2023-04-04T00:43:59.653Z,101358.84
2023-04-04T00:46:29.397Z,101356.91
2023-04-04T00:48:58.932Z,101355.82
2023-04-04T00:51:28.292Z,101347.02
2023-04-04T00:53:57.139Z,101341.66
2023-04-04T00:56:30.771Z,101338.80
2023-04-04T00:59:01.346Z,101341.92
2023-04-04T01:01:31.644Z,101330.55
2023-04-04T01:04:00.755Z,101333.77
2023-04-04T01:06:32.222Z,101326.66
2023-04-04T01:09:02.406Z,101325.53
2023-04-04T01:11:31.445Z,101315.13
2023-04-04T01:14:01.554Z,101316.65
2023-04-04T01:16:30.391Z,101312.16
2023-04-04T01:19:01.927Z,101308.56
2023-04-04T01:21:32.436Z,101304.97
2023-04-04T01:24:04.792Z,101309.92
2023-04-04T01:26:51.626Z,101302.11
2023-04-04T01:29:20.695Z,101309.61
2023-04-04T01:31:57.378Z,101304.33
2023-04-04T01:34:34.475Z,101294.82
2023-04-04T01:37:07.555Z,101298.11
2023-04-04T01:39:44.536Z,101298.90
2023-04-04T01:42:16.413Z,101295.38
2023-04-04T01:44:54.559Z,101302.98
2023-04-04T01:47:24.146Z,101310.55
2023-04-04T01:49:55.409Z,101309.58
2023-04-04T01:52:27.729Z,101304.40
2023-04-04T01:54:58.731Z,101313.66
2023-04-04T01:57:27.820Z,101306.78
2023-04-04T01:59:57.065Z,101309.27
2023-04-04T02:02:26.648Z,101306.64
2023-04-04T02:04:55.827Z,101305.67
2023-04-04T02:07:25.685Z,101309.89
2023-04-04T02:09:55.819Z,101306.40
2023-04-04T02:12:24.701Z,101313.97
2023-04-04T02:14:54.158Z,101309.50
2023-04-04T02:17:23.393Z,101311.95
2023-04-04T02:19:52.867Z,101306.77
2023-04-04T02:22:21.654Z,101310.98
2023-04-04T02:24:53.684Z,101313.40
2023-04-04T02:27:23.060Z,101307.31
2023-04-04T02:29:55.014Z,101311.46
2023-04-04T02:32:24.467Z,101304.52
2023-04-04T02:34:54.045Z,101312.08
2023-04-04T02:37:23.079Z,101308.59
2023-04-04T02:39:54.998Z,101310.17
2023-04-04T02:42:25.649Z,101316.87
2023-04-04T02:44:54.669Z,101319.35
2023-04-04T02:47:23.920Z,101324.46
2023-04-04T02:49:57.285Z,101323.49
2023-04-04T02:52:27.810Z,101321.63
2023-04-04T02:54:58.479Z,101325.88
2023-04-04T02:57:33.551Z,101327.56
2023-04-04T03:00:06.153Z,101330.01
2023-04-04T03:02:35.295Z,101331.70
2023-04-04T03:05:07.064Z,101329.94
2023-04-04T03:07:36.248Z,101326.41
2023-04-04T03:10:07.177Z,101327.99
2023-04-04T03:12:35.985Z,101321.84
2023-04-04T03:15:09.045Z,101328.53
2023-04-04T03:17:40.050Z,101334.28
2023-04-04T03:20:14.792Z,101333.31
2023-04-04T03:22:43.691Z,101331.44
2023-04-04T03:25:20.081Z,101326.18
2023-04-04T03:27:49.136Z,101319.20
2023-04-04T03:30:36.706Z,101316.50
2023-04-04T03:33:07.872Z,101318.94
2023-04-04T03:35:39.584Z,101317.10
2023-04-04T03:38:10.628Z,101318.79
2023-04-04T03:40:41.399Z,101319.58
2023-04-04T03:43:17.671Z,101311.73
2023-04-04T03:45:49.811Z,101315.98
2023-04-04T03:48:19.450Z,101307.42
2023-04-04T03:50:48.234Z,101321.09
2023-04-04T03:53:22.804Z,101311.66
2023-04-04T03:55:54.486Z,101311.55
2023-04-04T03:58:23.906Z,101315.88
2023-04-04T04:00:54.185Z,101320.19
2023-04-04T04:03:23.490Z,101322.84
2023-04-04T04:05:56.042Z,101327.14
2023-04-04T04:08:28.874Z,101320.30
2023-04-04T04:11:03.348Z,101323.72
2023-04-04T04:13:38.402Z,101324.51
2023-04-04T04:16:08.383Z,101324.58
2023-04-04T04:18:41.264Z,101322.14
2023-04-04T04:21:14.297Z,101323.11
2023-04-04T04:23:45.402Z,101319.73
2023-04-04T04:26:17.157Z,101325.73
2023-04-04T04:28:48.848Z,101323.27
2023-04-04T04:31:22.761Z,101322.58
2023-04-04T04:33:56.473Z,101316.83
2023-04-04T04:36:28.526Z,101321.22
2023-04-04T04:39:17.521Z,101313.73
2023-04-04T04:41:58.753Z,101311.36
2023-04-04T04:44:32.601Z,101303.95
2023-04-04T04:47:03.324Z,101303.34
2023-04-04T04:49:34.030Z,101305.34
2023-04-04T04:52:05.152Z,101294.48
2023-04-04T04:54:35.923Z,101303.19
2023-04-04T04:57:06.305Z,101308.59
2023-04-04T04:59:38.202Z,101300.27
2023-04-04T05:02:07.990Z,101309.16
2023-04-04T05:04:45.250Z,101308.67
2023-04-04T05:07:20.699Z,101308.13
2023-04-04T05:09:52.803Z,101308.47
2023-04-04T05:12:24.147Z,101307.13
2023-04-04T05:14:54.168Z,101297.20
2023-04-04T05:17:23.045Z,101302.56
2023-04-04T05:19:54.567Z,101296.73
2023-04-04T05:22:23.858Z,101287.85
2023-04-04T05:24:54.149Z,101286.59
2023-04-04T05:27:25.938Z,101275.41
2023-04-04T05:29:58.942Z,101276.72
2023-04-04T05:32:30.599Z,101275.92
2023-04-04T05:35:10.805Z,101283.85
2023-04-04T05:37:40.916Z,101277.25
2023-04-04T05:40:15.616Z,101279.01
2023-04-04T05:42:54.914Z,101281.08
2023-04-04T05:45:29.054Z,101282.82
2023-04-04T05:47:58.051Z,101286.03
2023-04-04T05:50:27.974Z,101284.17
2023-04-04T05:53:02.509Z,101290.84
2023-04-04T05:55:32.117Z,101289.56
2023-04-04T05:58:01.269Z,101289.55
2023-04-04T06:00:43.635Z,101293.12
2023-04-04T06:03:13.925Z,101293.66
2023-04-04T06:05:44.438Z,101295.16
2023-04-04T06:08:15.265Z,101298.39
2023-04-04T06:10:44.091Z,101292.03
2023-04-04T06:13:13.795Z,101285.97
2023-04-04T06:15:45.507Z,101288.54
2023-04-04T06:18:16.874Z,101286.91
2023-04-04T06:20:46.283Z,101290.72
2023-04-04T06:23:17.925Z,101282.42
2023-04-04T06:25:51.981Z,101273.44
2023-04-04T06:28:22.268Z,101270.45
2023-04-04T06:30:52.477Z,101264.53
2023-04-04T06:33:30.115Z,101261.23
2023-04-04T06:36:00.497Z,101260.03
2023-04-04T06:38:30.029Z,101260.58
2023-04-04T06:41:02.496Z,101251.63
2023-04-04T06:43:31.349Z,101253.48
2023-04-04T06:46:01.114Z,101249.23
2023-04-04T06:48:30.233Z,101249.22
2023-04-04T06:50:59.525Z,101250.16
2023-04-04T06:53:29.916Z,101236.94
2023-04-04T06:55:59.263Z,101244.69
2023-04-04T06:58:29.241Z,101243.50
2023-04-04T07:01:01.304Z,101240.72
2023-04-04T07:03:31.155Z,101245.70
2023-04-04T07:06:04.308Z,101247.80
2023-04-04T07:08:36.296Z,101245.16
2023-04-04T07:11:07.414Z,101241.02
2023-04-04T07:13:36.372Z,101250.23
2023-04-04T07:16:05.825Z,101255.13
2023-04-04T07:18:34.566Z,101247.56
2023-04-04T07:21:03.658Z,101255.26
2023-04-04T07:23:32.441Z,101257.31
2023-04-04T07:26:02.309Z,101262.55
2023-04-04T07:28:31.239Z,101260.30
2023-04-04T07:31:01.480Z,101256.40
2023-04-04T07:33:30.537Z,101251.08
2023-04-04T07:36:01.989Z,101251.03
2023-04-04T07:38:30.815Z,101255.44
2023-04-04T07:41:00.677Z,101256.02
2023-04-04T07:43:30.908Z,101254.73
2023-04-04T07:46:00.190Z,101253.44
2023-04-04T07:48:29.428Z,101260.66
2023-04-04T07:50:59.839Z,101249.05
2023-04-04T07:53:28.549Z,101252.12
2023-04-04T07:55:57.568Z,101240.20
2023-04-04T07:58:26.528Z,101245.22
2023-04-04T08:00:57.673Z,101237.41
2023-04-04T08:03:26.760Z,101232.40
2023-04-04T08:05:56.010Z,101236.58
2023-04-04T08:08:25.028Z,101233.39
2023-04-04T08:10:55.149Z,101223.20
2023-04-04T08:13:24.086Z,101216.70
2023-04-04T08:15:53.125Z,101220.73
2023-04-04T08:18:21.974Z,101219.03
2023-04-04T08:20:50.824Z,101219.31
2023-04-04T08:23:19.558Z,101211.58
2023-04-04T08:25:48.477Z,101201.52
2023-04-04T08:28:17.452Z,101202.80
2023-04-04T08:30:47.606Z,101201.28
2023-04-04T08:33:16.808Z,101192.09
2023-04-04T08:35:45.812Z,101192.81
2023-04-04T08:38:17.146Z,101195.56
2023-04-04T08:40:47.972Z,101201.17
2023-04-04T08:43:17.585Z,101194.16
2023-04-04T08:45:50.574Z,101192.87
2023-04-04T08:48:22.630Z,101195.33
2023-04-04T08:50:53.676Z,101200.97
2023-04-04T08:53:22.727Z,101197.08
2023-04-04T08:55:53.198Z,101197.09
2023-04-04T08:58:22.305Z,101192.55
2023-04-04T09:00:53.075Z,101193.55
2023-04-04T09:03:25.895Z,101200.55
2023-04-04T09:05:56.496Z,101189.25
2023-04-04T09:08:25.737Z,101197.96
2023-04-04T09:10:55.737Z,101189.24
2023-04-04T09:13:24.674Z,101201.23
2023-04-04T09:15:54.989Z,101196.31
2023-04-04T09:18:23.855Z,101196.88
2023-04-04T09:20:52.753Z,101199.63
2023-04-04T09:23:23.199Z,101194.88
2023-04-04T09:26:03.254Z,101190.91
2023-04-04T09:28:33.722Z,101194.59
2023-04-04T09:31:06.612Z,101200.12
2023-04-04T09:33:36.344Z,101200.65
2023-04-04T09:36:09.701Z,101202.66
2023-04-04T09:38:42.560Z,101205.42
2023-04-04T09:41:16.181Z,101209.08
2023-04-04T09:43:46.748Z,101202.64
2023-04-04T09:46:20.743Z,101204.66
2023-04-04T09:48:51.433Z,101211.77
2023-04-04T09:51:20.372Z,101216.42
2023-04-04T09:53:52.175Z,101212.40
2023-04-04T09:56:33.103Z,101214.27
2023-04-04T09:59:04.671Z,101208.98
2023-04-04T10:01:34.925Z,101212.86
2023-04-04T10:04:05.596Z,101212.38
2023-04-04T10:06:38.052Z,101212.02
2023-04-04T10:09:08.826Z,101214.31
2023-04-04T10:11:38.742Z,101216.78
2023-04-04T10:14:09.112Z,101215.75
2023-04-04T10:16:44.052Z,101208.80
2023-04-04T10:19:17.898Z,101216.06
2023-04-04T10:21:49.134Z,101214.38
2023-04-04T10:24:18.678Z,101209.09
2023-04-04T10:26:47.690Z,101209.86
2023-04-04T10:29:16.941Z,101204.75
2023-04-04T10:31:56.577Z,101203.92
2023-04-04T10:34:36.433Z,101214.86
2023-04-04T10:37:10.688Z,101209.61
2023-04-04T10:39:52.864Z,101207.64
2023-04-04T10:42:23.029Z,101205.77
2023-04-04T10:44:53.345Z,101200.58
2023-04-04T10:47:25.563Z,101197.94
2023-04-04T10:49:57.179Z,101197.99
2023-04-04T10:52:29.763Z,101199.18
2023-04-04T10:55:04.416Z,101193.41
2023-04-04T10:57:34.285Z,101200.51
2023-04-04T11:00:07.137Z,101192.50
2023-04-04T11:02:50.820Z,101185.41
2023-04-04T11:05:26.144Z,101187.90
2023-04-04T11:10:32.551Z,101184.02
2023-04-04T11:13:13.396Z,101185.28
2023-04-04T11:15:52.293Z,101186.11
2023-04-04T11:18:33.095Z,101181.72
2023-04-04T11:21:05.001Z,101187.50
2023-04-04T11:24:15.774Z,101186.23
2023-04-04T11:26:46.640Z,101186.03
2023-04-04T11:29:42.262Z,101177.68
2023-04-04T11:32:29.455Z,101177.10
2023-04-04T11:34:58.406Z,101173.16
2023-04-04T11:37:32.329Z,101178.61
2023-04-04T11:40:12.447Z,101170.77
2023-04-04T11:42:42.879Z,101184.39
2023-04-04T11:45:19.584Z,101185.41
2023-04-04T11:47:49.066Z,101186.63
2023-04-04T11:50:20.416Z,101175.87
2023-04-04T11:52:53.347Z,101182.41
2023-04-04T11:55:23.260Z,101181.02
2023-04-04T11:57:54.985Z,101179.80
2023-04-04T12:00:31.518Z,101187.31
2023-04-04T12:03:00.695Z,101173.31
2023-04-04T12:05:31.370Z,101180.23
2023-04-04T12:08:02.678Z,101170.91
2023-04-04T12:10:35.597Z,101168.72
2023-04-04T12:13:07.447Z,101168.45
2023-04-04T12:15:37.923Z,101175.04
2023-04-04T12:18:10.627Z,101174.57
2023-04-04T12:20:41.068Z,101168.69
2023-04-04T12:23:10.046Z,101171.27
2023-04-04T12:25:43.626Z,101177.09
2023-04-04T12:28:15.240Z,101175.66
2023-04-04T12:30:45.711Z,101176.11
2023-04-04T12:33:17.530Z,101168.20
2023-04-04T12:35:54.910Z,101172.25
2023-04-04T12:38:24.402Z,101171.03
2023-04-04T12:40:53.352Z,101166.64
2023-04-04T12:43:22.248Z,101168.23
2023-04-04T12:45:53.737Z,101168.16
2023-04-04T12:48:28.177Z,101163.77
2023-04-04T12:50:58.617Z,101155.30
2023-04-04T12:53:30.076Z,101157.18
2023-04-04T12:56:04.475Z,101153.80
2023-04-04T12:58:37.629Z,101158.36
2023-04-04T13:01:09.021Z,101153.42
2023-04-04T13:03:38.777Z,101153.48
2023-04-04T13:06:15.642Z,101156.16
2023-04-04T13:08:51.724Z,101156.96
2023-04-04T13:11:26.208Z,101151.06
2023-04-04T13:14:03.385Z,101162.56
2023-04-04T13:16:35.116Z,101160.81
2023-04-04T13:19:04.912Z,101151.44
2023-04-04T13:21:34.676Z,101157.64
2023-04-04T13:24:03.774Z,101155.21
2023-04-04T13:26:33.321Z,101152.93
2023-04-04T13:29:02.211Z,101156.46
2023-04-04T13:31:31.860Z,101152.98
2023-04-04T13:34:00.621Z,101154.62
2023-04-04T13:36:30.751Z,101152.93
2023-04-04T13:38:59.773Z,101144.29
2023-04-04T13:41:29.284Z,101152.02
2023-04-04T13:43:58.620Z,101142.30
2023-04-04T13:46:27.809Z,101143.97
2023-04-04T13:48:56.664Z,101150.05
2023-04-04T13:51:27.858Z,101141.35
2023-04-04T13:53:56.541Z,101147.53
2023-04-04T13:56:28.043Z,101146.75
2023-04-04T13:58:57.392Z,101143.31
2023-04-04T14:01:26.785Z,101140.84
2023-04-04T14:03:55.836Z,101138.30
2023-04-04T14:06:25.949Z,101142.36
2023-04-04T14:08:55.319Z,101147.34
2023-04-04T14:11:30.532Z,101144.05
2023-04-04T14:13:59.341Z,101143.97
2023-04-04T14:16:28.421Z,101147.23
2023-04-04T14:18:58.555Z,101147.07
2023-04-04T14:21:30.558Z,101145.23
2023-04-04T14:24:01.432Z,101142.55
2023-04-04T14:26:30.249Z,101138.92
2023-04-04T14:28:59.043Z,101139.63
2023-04-04T14:31:31.910Z,101139.56
2023-04-04T14:34:02.233Z,101129.31
2023-04-04T14:36:31.952Z,101127.65
2023-04-04T14:39:01.102Z,101125.87
2023-04-04T14:41:30.256Z,101128.32
2023-04-04T14:43:59.504Z,101122.27
2023-04-04T14:46:28.953Z,101130.91
2023-04-04T14:49:00.065Z,101130.78
2023-04-04T14:51:30.791Z,101129.76
2023-04-04T14:54:02.322Z,101129.66
2023-04-04T14:56:31.591Z,101132.11
2023-04-04T14:59:05.140Z,101137.47
2023-04-04T15:01:34.925Z,101132.47
2023-04-04T15:04:03.799Z,101134.22
2023-04-04T15:06:37.499Z,101132.59
2023-04-04T15:09:07.657Z,101122.39
2023-04-04T15:11:37.081Z,101121.66
2023-04-04T15:14:06.303Z,101125.16
2023-04-04T15:16:35.620Z,101113.95
2023-04-04T15:19:04.520Z,101116.38
2023-04-04T15:21:33.304Z,101114.53
2023-04-04T15:24:02.048Z,101109.34
2023-04-04T15:26:31.057Z,101111.12
2023-04-04T15:29:00.200Z,101111.19
2023-04-04T15:31:31.510Z,101109.46
2023-04-04T15:34:00.668Z,101106.91
2023-04-04T15:36:33.008Z,101110.32
2023-04-04T15:39:02.846Z,101109.34
2023-04-04T15:41:32.674Z,101106.51
2023-04-04T15:44:01.877Z,101115.74
2023-04-04T15:46:36.007Z,101109.53
2023-04-04T15:49:05.237Z,101114.56
2023-04-04T15:51:36.289Z,101112.61
2023-04-04T15:54:05.932Z,101103.91
2023-04-04T15:56:35.225Z,101108.84
2023-04-04T15:59:04.636Z,101118.87
2023-04-04T16:01:34.839Z,101111.01
2023-04-04T16:04:04.647Z,101109.16
2023-04-04T16:06:34.135Z,101112.56
2023-04-04T16:09:03.750Z,101110.73
2023-04-04T16:11:33.449Z,101115.75
2023-04-04T16:14:02.458Z,101113.03
2023-04-04T16:16:33.377Z,101117.12
2023-04-04T16:19:02.324Z,101118.66
2023-04-04T16:21:32.221Z,101119.30
2023-04-04T16:24:03.078Z,101115.66
2023-04-04T16:26:32.355Z,101117.16
2023-04-04T16:29:02.871Z,101116.97
2023-04-04T16:31:33.413Z,101115.81
2023-04-04T16:34:03.352Z,101114.81
2023-04-04T16:36:32.931Z,101122.38
2023-04-04T16:39:01.904Z,101119.66
2023-04-04T16:41:31.208Z,101128.08
2023-04-04T16:44:00.269Z,101122.82
2023-04-04T16:46:29.707Z,101125.28
2023-04-04T16:48:58.905Z,101120.14
2023-04-04T16:51:29.030Z,101115.77
2023-04-04T16:53:58.134Z,101124.31
2023-04-04T16:56:31.018Z,101119.16
2023-04-04T16:58:59.918Z,101118.23
2023-04-04T17:01:33.404Z,101113.82
2023-04-04T17:04:02.597Z,101121.42
2023-04-04T17:06:32.756Z,101117.91
2023-04-04T17:09:01.600Z,101116.13
2023-04-04T17:11:31.369Z,101121.97
2023-04-04T17:14:00.314Z,101126.14
2023-04-04T17:16:29.889Z,101120.88
2023-04-04T17:18:59.060Z,101115.64
2023-04-04T17:21:28.173Z,101121.53
2023-04-04T17:23:57.347Z,101121.45
2023-04-04T17:26:31.269Z,101122.15
2023-04-04T17:29:00.261Z,101129.83
2023-04-04T17:31:32.524Z,101127.17
2023-04-04T17:34:01.608Z,101131.41
2023-04-04T17:36:31.769Z,101128.84
2023-04-04T17:39:00.795Z,101132.23
2023-04-04T17:41:31.015Z,101130.48
2023-04-04T17:43:59.807Z,101133.79
2023-04-04T17:46:31.735Z,101140.64
2023-04-04T17:49:01.325Z,101137.13
2023-04-04T17:51:31.594Z,101139.70
2023-04-04T17:54:00.864Z,101145.63
2023-04-04T17:56:31.786Z,101136.97
2023-04-04T17:59:01.234Z,101144.64
2023-04-04T18:01:39.132Z,101143.70
2023-04-04T18:04:08.845Z,101150.52
2023-04-04T18:06:40.295Z,101148.72
2023-04-04T18:09:11.008Z,101156.39
2023-04-04T18:11:40.489Z,101152.06
2023-04-04T18:14:09.473Z,101149.45
2023-04-04T18:16:40.984Z,101147.69
2023-04-04T18:19:11.293Z,101152.83
2023-04-04T18:21:41.100Z,101154.51
2023-04-04T18:24:11.397Z,101157.89
2023-04-04T18:26:45.362Z,101159.61
2023-04-04T18:29:21.024Z,101157.85
2023-04-04T18:31:56.545Z,101156.14
2023-04-04T18:34:27.461Z,101161.23
2023-04-04T18:36:57.163Z,101156.91
2023-04-04T18:39:27.125Z,101162.05
2023-04-04T18:41:57.601Z,101159.44
2023-04-04T18:44:27.156Z,101161.11
2023-04-04T18:46:58.706Z,101154.22
2023-04-04T18:49:28.223Z,101156.73
2023-04-04T18:51:57.846Z,101163.59
2023-04-04T18:54:27.127Z,101159.19
2023-04-04T18:57:02.305Z,101157.43
2023-04-04T18:59:37.912Z,101154.77
2023-04-04T19:02:12.386Z,101153.88
2023-04-04T19:04:48.785Z,101157.21
2023-04-04T19:07:22.272Z,101154.52
2023-04-04T19:09:57.438Z,101152.66
2023-04-04T19:12:32.036Z,101155.16
2023-04-04T19:15:03.604Z,101157.62
2023-04-04T19:17:44.159Z,101152.36
2023-04-04T19:20:18.148Z,101152.10
2023-04-04T19:22:51.059Z,101153.69
2023-04-04T19:25:24.571Z,101152.56
2023-04-04T19:27:56.955Z,101155.67
2023-04-04T19:30:43.409Z,101151.20
2023-04-04T19:33:18.285Z,101154.45
2023-04-04T19:35:56.096Z,101153.33
2023-04-04T19:38:33.097Z,101153.15
2023-04-04T19:41:34.073Z,101148.64
2023-04-04T19:44:21.491Z,101151.73
2023-04-04T19:46:54.183Z,101154.92
2023-04-04T19:49:27.614Z,101154.59
2023-04-04T19:51:59.134Z,101155.13
2023-04-04T19:54:29.575Z,101156.50
2023-04-04T19:57:05.967Z,101156.98
2023-04-04T20:00:14.280Z,101152.27
2023-04-04T20:02:59.942Z,101149.72
2023-04-04T20:05:59.869Z,101157.67
2023-04-04T20:08:36.912Z,101150.32
2023-04-04T20:11:07.066Z,101157.39
2023-04-04T20:13:37.214Z,101159.39
2023-04-04T20:16:14.476Z,101151.14
2023-04-04T20:18:47.029Z,101155.83
2023-04-04T20:21:20.461Z,101158.89
2023-04-04T20:23:52.753Z,101163.73
2023-04-04T20:26:42.237Z,101165.13
2023-04-04T20:29:12.585Z,101157.00
2023-04-04T20:31:45.058Z,101157.65
2023-04-04T20:34:42.467Z,101153.27
2023-04-04T20:37:19.261Z,101169.11
2023-04-04T20:39:52.453Z,101161.21
2023-04-04T20:42:38.127Z,101162.69
2023-04-04T20:45:35.669Z,101161.56
2023-04-04T20:48:07.845Z,101152.06
2023-04-04T20:50:45.739Z,101152.06
2023-04-04T20:53:20.114Z,101150.14
2023-04-04T20:55:50.576Z,101146.40
2023-04-04T20:58:26.805Z,101154.69
2023-04-04T21:00:57.183Z,101148.38
2023-04-04T21:03:40.486Z,101148.15
2023-04-04T21:06:16.986Z,101155.72
2023-04-04T21:08:51.123Z,101145.42
2023-04-04T21:11:28.344Z,101146.39
2023-04-04T21:13:58.029Z,101141.34
2023-04-04T21:16:28.882Z,101148.28
2023-04-04T21:19:00.467Z,101146.75
2023-04-04T21:21:30.046Z,101145.15
2023-04-04T21:24:00.145Z,101141.89
2023-04-04T21:26:32.264Z,101146.17
2023-04-04T21:29:03.622Z,101143.55
2023-04-04T21:31:38.389Z,101146.17
2023-04-04T21:34:13.828Z,101143.62
2023-04-04T21:36:43.993Z,101145.37
2023-04-04T21:39:16.223Z,101143.62
2023-04-04T21:41:47.670Z,101147.94
2023-04-04T21:44:17.305Z,101146.17
2023-04-04T21:46:49.441Z,101151.23
2023-04-04T21:49:19.209Z,101145.95
2023-04-04T21:51:49.116Z,101139.81
2023-04-04T21:54:17.921Z,101143.96
2023-04-04T21:56:47.250Z,101140.47
2023-04-04T21:59:16.567Z,101146.39
2023-04-04T22:01:45.840Z,101150.55
2023-04-04T22:04:15.407Z,101151.11
2023-04-04T22:06:44.987Z,101150.78
2023-04-04T22:09:15.965Z,101152.08
2023-04-04T22:11:44.935Z,101153.37
2023-04-04T22:14:16.770Z,101152.09
2023-04-04T22:16:46.755Z,101149.27
2023-04-04T22:19:17.515Z,101149.27
2023-04-04T22:21:47.746Z,101142.33
2023-04-04T22:24:17.483Z,101146.41
2023-04-04T22:26:46.898Z,101150.49
2023-04-04T22:29:17.224Z,101145.20
2023-04-04T22:31:46.628Z,101138.34
2023-04-04T22:34:16.358Z,101140.83
2023-04-04T22:36:45.288Z,101148.39
2023-04-04T22:39:15.247Z,101139.69
2023-04-04T22:41:45.732Z,101142.80
2023-04-04T22:44:15.425Z,101141.76
2023-04-04T22:46:44.281Z,101146.80
2023-04-04T22:49:15.691Z,101144.14
2023-04-04T22:51:45.080Z,101137.92
2023-04-04T22:54:17.021Z,101135.99
2023-04-04T22:56:46.575Z,101135.68
2023-04-04T22:59:16.516Z,101140.54
2023-04-04T23:01:45.599Z,101145.41
2023-04-04T23:04:15.627Z,101140.05
2023-04-04T23:06:45.912Z,101139.22
2023-04-04T23:09:15.717Z,101133.97
2023-04-04T23:11:44.417Z,101134.66
2023-04-04T23:14:14.865Z,101135.37
2023-04-04T23:16:43.599Z,101125.89
2023-04-04T23:19:14.823Z,101129.16
2023-04-04T23:21:44.269Z,101122.36
2023-04-04T23:24:13.839Z,101126.67
2023-04-04T23:26:42.784Z,101124.98
2023-04-04T23:29:12.002Z,101119.88
2023-04-04T23:31:41.551Z,101115.50
2023-04-04T23:34:10.322Z,101119.56
2023-04-04T23:36:39.430Z,101112.45
2023-04-04T23:39:08.955Z,101108.85
2023-04-04T23:41:37.761Z,101107.09
2023-04-04T23:44:07.484Z,101103.56
2023-04-04T23:46:36.491Z,101107.56
2023-04-04T23:49:05.668Z,101102.28
2023-04-04T23:51:38.289Z,101103.78
2023-04-04T23:54:09.490Z,101100.27
2023-04-04T23:56:38.347Z,101102.70
2023-04-04T23:59:10.970Z,101097.46
